createdAt,value
2017-08-16T00:00:52.611Z,20.59
2017-08-16T00:03:20.071Z,20.50
2017-08-16T00:05:48.211Z,20.61
2017-08-16T00:08:15.702Z,20.64
2017-08-16T00:10:43.284Z,20.45
2017-08-16T00:13:10.818Z,20.46
2017-08-16T00:15:38.269Z,20.50
2017-08-16T00:18:05.934Z,20.35
2017-08-16T00:20:33.388Z,20.05
2017-08-16T00:23:00.955Z,20.13
2017-08-16T00:25:28.484Z,20.00
2017-08-16T00:27:55.965Z,19.98
2017-08-16T00:30:23.420Z,20.06
2017-08-16T00:32:50.900Z,20.12
2017-08-16T00:35:18.433Z,20.29
2017-08-16T00:37:45.940Z,20.44
2017-08-16T00:40:13.401Z,20.27
2017-08-16T00:42:40.876Z,20.34
2017-08-16T00:45:08.335Z,20.16
2017-08-16T00:47:35.818Z,20.30
2017-08-16T00:50:03.285Z,20.32
2017-08-16T00:52:30.760Z,20.17
2017-08-16T00:54:59.004Z,20.21
2017-08-16T00:57:26.471Z,20.17
2017-08-16T00:59:53.934Z,20.19
2017-08-16T01:02:21.475Z,20.06
2017-08-16T01:04:49.089Z,20.01
2017-08-16T01:07:16.652Z,20.06
2017-08-16T01:09:44.165Z,20.03
2017-08-16T01:12:11.622Z,20.01
2017-08-16T01:14:39.106Z,19.91
2017-08-16T01:17:06.647Z,20.01
2017-08-16T01:19:34.193Z,19.83
2017-08-16T01:22:01.649Z,19.84
2017-08-16T01:24:29.198Z,19.88
2017-08-16T01:26:56.660Z,19.78
2017-08-16T01:29:24.135Z,19.65
2017-08-16T01:31:51.677Z,19.57
2017-08-16T01:34:19.223Z,19.46
2017-08-16T01:36:46.681Z,19.37
2017-08-16T01:39:14.161Z,19.59
2017-08-16T01:41:41.699Z,19.31
2017-08-16T01:44:09.215Z,19.25
2017-08-16T01:46:36.685Z,19.40
2017-08-16T01:49:04.162Z,19.32
2017-08-16T01:51:31.757Z,19.14
2017-08-16T01:53:59.217Z,19.10
2017-08-16T01:56:26.767Z,19.16
2017-08-16T01:58:54.227Z,19.24
2017-08-16T02:01:21.773Z,19.40
2017-08-16T02:03:49.241Z,19.24
2017-08-16T02:06:16.736Z,19.12
2017-08-16T02:08:44.198Z,19.12
2017-08-16T02:11:11.672Z,19.32
2017-08-16T02:13:39.130Z,19.23
2017-08-16T02:16:06.719Z,19.26
2017-08-16T02:18:34.259Z,19.29
2017-08-16T02:21:01.829Z,19.19
2017-08-16T02:23:29.287Z,18.85
2017-08-16T02:25:56.773Z,18.71
2017-08-16T02:28:24.224Z,18.57
2017-08-16T02:30:51.761Z,18.72
2017-08-16T02:33:19.261Z,18.88
2017-08-16T02:35:46.721Z,18.56
2017-08-16T02:38:14.244Z,18.52
2017-08-16T02:40:41.708Z,18.43
2017-08-16T02:43:09.172Z,18.62
2017-08-16T02:45:36.705Z,18.61
2017-08-16T02:48:04.180Z,18.65
2017-08-16T02:50:31.642Z,18.90
2017-08-16T02:52:59.121Z,18.99
2017-08-16T02:55:26.620Z,18.76
2017-08-16T02:57:54.129Z,18.57
2017-08-16T03:00:21.635Z,18.45
2017-08-16T03:02:49.108Z,18.42
2017-08-16T03:05:16.629Z,18.43
2017-08-16T03:07:44.108Z,18.30
2017-08-16T03:10:11.666Z,18.07
2017-08-16T03:12:39.119Z,17.75
2017-08-16T03:15:06.694Z,17.63
2017-08-16T03:17:34.166Z,17.53
2017-08-16T03:20:01.649Z,17.42
2017-08-16T03:22:29.111Z,17.54
2017-08-16T03:24:56.707Z,17.57
2017-08-16T03:27:24.271Z,17.56
2017-08-16T03:29:51.841Z,17.58
2017-08-16T03:32:19.388Z,17.73
2017-08-16T03:34:46.857Z,17.76
2017-08-16T03:37:14.320Z,17.76
2017-08-16T03:39:41.914Z,17.75
2017-08-16T03:42:09.401Z,17.75
2017-08-16T03:44:36.904Z,17.65
2017-08-16T03:47:04.492Z,17.68
2017-08-16T03:49:32.067Z,17.52
2017-08-16T03:51:59.531Z,17.44
2017-08-16T03:54:27.025Z,17.56
2017-08-16T03:56:54.505Z,17.68
2017-08-16T03:59:22.033Z,17.74
2017-08-16T04:01:49.608Z,17.83
2017-08-16T04:04:17.128Z,18.03
2017-08-16T04:06:44.650Z,18.21
2017-08-16T04:09:12.107Z,17.98
2017-08-16T04:11:39.579Z,17.90
2017-08-16T04:14:07.037Z,18.04
2017-08-16T04:16:34.552Z,18.41
2017-08-16T04:19:02.021Z,18.43
2017-08-16T04:21:29.500Z,18.73
2017-08-16T04:23:56.998Z,18.65
2017-08-16T04:26:24.506Z,18.55
2017-08-16T04:28:51.981Z,18.46
2017-08-16T04:31:19.456Z,18.46
2017-08-16T04:33:46.938Z,18.58
2017-08-16T04:36:14.416Z,18.71
2017-08-16T04:38:43.221Z,18.81
2017-08-16T04:41:10.831Z,18.81
2017-08-16T04:43:38.299Z,18.84
2017-08-16T04:46:05.757Z,19.00
2017-08-16T04:48:33.315Z,19.12
2017-08-16T04:51:00.774Z,19.12
2017-08-16T04:53:28.394Z,18.93
2017-08-16T04:55:55.843Z,18.82
2017-08-16T04:58:23.349Z,18.71
2017-08-16T05:00:50.841Z,18.59
2017-08-16T05:03:18.302Z,18.47
2017-08-16T05:05:45.786Z,18.34
2017-08-16T05:08:13.369Z,18.56
2017-08-16T05:10:40.824Z,18.64
2017-08-16T05:13:08.292Z,18.67
2017-08-16T05:15:35.834Z,18.76
2017-08-16T05:18:03.746Z,18.81
2017-08-16T05:20:31.213Z,18.78
2017-08-16T05:22:58.675Z,18.92
2017-08-16T05:25:26.151Z,18.95
2017-08-16T05:27:53.624Z,19.02
2017-08-16T05:30:21.163Z,18.93
2017-08-16T05:32:48.603Z,19.05
2017-08-16T05:35:16.100Z,19.04
2017-08-16T05:37:43.552Z,18.97
2017-08-16T05:40:11.042Z,19.13
2017-08-16T05:42:38.501Z,19.19
2017-08-16T05:45:06.051Z,19.30
2017-08-16T05:47:33.592Z,19.65
2017-08-16T05:50:01.069Z,19.73
2017-08-16T05:52:28.517Z,19.95
2017-08-16T05:54:56.592Z,19.94
2017-08-16T05:57:24.049Z,19.94
2017-08-16T05:59:51.587Z,20.01
2017-08-16T06:02:19.058Z,19.91
2017-08-16T06:04:46.605Z,19.92
2017-08-16T06:07:14.060Z,19.82
2017-08-16T06:09:41.571Z,19.91
2017-08-16T06:12:09.024Z,19.88
2017-08-16T06:14:36.581Z,19.94
2017-08-16T06:17:04.050Z,19.97
2017-08-16T06:19:31.665Z,20.07
2017-08-16T06:21:59.212Z,20.06
2017-08-16T06:24:26.681Z,20.13
2017-08-16T06:26:54.149Z,20.09
2017-08-16T06:29:21.628Z,20.26
2017-08-16T06:31:49.100Z,20.29
2017-08-16T06:34:16.589Z,20.23
2017-08-16T06:36:44.147Z,20.44
2017-08-16T06:39:11.708Z,20.51
2017-08-16T06:41:39.277Z,20.45
2017-08-16T06:44:06.776Z,20.44
2017-08-16T06:46:34.284Z,20.47
2017-08-16T06:49:01.737Z,20.43
2017-08-16T06:51:29.207Z,20.60
2017-08-16T06:53:56.755Z,20.71
2017-08-16T06:56:24.319Z,20.97
2017-08-16T06:58:51.897Z,20.88
2017-08-16T07:01:19.456Z,21.31
2017-08-16T07:03:46.942Z,21.36
2017-08-16T07:06:14.441Z,21.44
2017-08-16T07:08:41.879Z,21.35
2017-08-16T07:11:09.362Z,21.93
2017-08-16T07:13:36.872Z,22.22
2017-08-16T07:16:04.403Z,21.88
2017-08-16T07:18:32.048Z,22.02
2017-08-16T07:21:00.393Z,21.79
2017-08-16T07:23:27.872Z,21.38
2017-08-16T07:25:55.326Z,21.89
2017-08-16T07:28:22.857Z,21.48
2017-08-16T07:30:50.303Z,21.65
2017-08-16T07:33:17.791Z,21.92
2017-08-16T07:35:45.241Z,22.36
2017-08-16T07:38:12.728Z,22.23
2017-08-16T07:40:40.283Z,22.73
2017-08-16T07:43:07.756Z,22.37
2017-08-16T07:45:35.289Z,22.58
2017-08-16T07:48:02.779Z,22.31
2017-08-16T07:50:30.253Z,22.35
2017-08-16T07:52:57.716Z,22.50
2017-08-16T07:55:25.209Z,22.57
2017-08-16T07:57:52.782Z,22.18
2017-08-16T08:00:20.892Z,22.00
2017-08-16T08:02:48.362Z,22.09
2017-08-16T08:05:15.841Z,22.47
2017-08-16T08:07:43.296Z,22.34
2017-08-16T08:10:10.781Z,22.95
2017-08-16T08:12:38.247Z,22.84
2017-08-16T08:15:05.779Z,22.74
2017-08-16T08:17:33.248Z,22.60
2017-08-16T08:20:00.800Z,23.21
2017-08-16T08:22:28.265Z,23.20
2017-08-16T08:24:56.174Z,22.94
2017-08-16T08:27:23.649Z,23.00
2017-08-16T08:29:51.148Z,23.45
2017-08-16T08:32:18.642Z,23.53
2017-08-16T08:34:46.189Z,23.68
2017-08-16T08:37:13.637Z,23.93
2017-08-16T08:39:41.180Z,24.25
2017-08-16T08:42:08.657Z,23.72
2017-08-16T08:44:36.212Z,23.41
2017-08-16T08:47:03.753Z,23.75
2017-08-16T08:49:31.300Z,24.05
2017-08-16T08:51:58.764Z,23.95
2017-08-16T08:54:26.213Z,23.81
2017-08-16T08:56:53.695Z,23.11
2017-08-16T08:59:21.162Z,23.29
2017-08-16T09:01:48.632Z,23.20
2017-08-16T09:04:16.093Z,23.23
2017-08-16T09:06:43.554Z,23.82
2017-08-16T09:09:11.013Z,23.84
2017-08-16T09:11:38.508Z,23.59
2017-08-16T09:14:05.956Z,24.21
2017-08-16T09:16:33.480Z,24.30
2017-08-16T09:19:00.941Z,23.96
2017-08-16T09:21:28.397Z,24.17
2017-08-16T09:23:55.883Z,24.35
2017-08-16T09:26:23.381Z,24.74
2017-08-16T09:28:50.858Z,24.22
2017-08-16T09:31:18.392Z,23.73
2017-08-16T09:33:45.954Z,24.51
2017-08-16T09:36:13.442Z,24.19
2017-08-16T09:38:40.917Z,24.23
2017-08-16T09:41:08.381Z,24.12
2017-08-16T09:43:35.848Z,24.41
2017-08-16T09:46:03.290Z,24.69
2017-08-16T09:48:30.879Z,24.46
2017-08-16T09:50:58.340Z,25.17
2017-08-16T09:53:25.807Z,24.60
2017-08-16T09:55:53.353Z,25.08
2017-08-16T09:58:20.847Z,24.68
2017-08-16T10:00:48.295Z,25.15
2017-08-16T10:03:15.810Z,24.94
2017-08-16T10:05:43.469Z,25.47
2017-08-16T10:08:11.090Z,25.45
2017-08-16T10:10:38.589Z,24.70
2017-08-16T10:13:06.147Z,25.05
2017-08-16T10:15:33.641Z,24.72
2017-08-16T10:18:01.709Z,24.81
2017-08-16T10:20:29.220Z,24.75
2017-08-16T10:22:56.672Z,24.79
2017-08-16T10:25:24.150Z,24.74
2017-08-16T10:27:51.612Z,25.09
2017-08-16T10:30:19.296Z,25.66
2017-08-16T10:32:46.837Z,25.73
2017-08-16T10:35:14.307Z,25.62
2017-08-16T10:37:41.790Z,25.19
2017-08-16T10:40:09.281Z,25.16
2017-08-16T10:42:37.318Z,25.25
2017-08-16T10:45:05.025Z,25.15
2017-08-16T10:47:32.677Z,25.34
2017-08-16T10:50:00.143Z,24.63
2017-08-16T10:52:27.653Z,24.74
2017-08-16T10:54:55.159Z,24.44
2017-08-16T10:57:22.669Z,24.88
2017-08-16T10:59:50.191Z,25.35
2017-08-16T11:02:17.683Z,25.38
2017-08-16T11:04:45.199Z,24.87
2017-08-16T11:07:12.663Z,25.27
2017-08-16T11:09:40.123Z,25.59
2017-08-16T11:12:07.662Z,25.87
2017-08-16T11:14:35.103Z,25.73
2017-08-16T11:17:02.680Z,25.89
2017-08-16T11:19:30.138Z,25.71
2017-08-16T11:21:57.720Z,25.55
2017-08-16T11:24:25.261Z,25.73
2017-08-16T11:26:52.759Z,25.73
2017-08-16T11:29:20.276Z,26.13
2017-08-16T11:31:47.737Z,26.70
2017-08-16T11:34:15.286Z,26.07
2017-08-16T11:36:42.835Z,25.86
2017-08-16T11:39:10.299Z,25.80
2017-08-16T11:41:37.875Z,25.58
2017-08-16T11:44:05.355Z,25.98
2017-08-16T11:46:32.874Z,26.53
2017-08-16T11:49:00.367Z,26.35
2017-08-16T11:51:27.812Z,26.00
2017-08-16T11:53:55.396Z,25.85
2017-08-16T11:56:22.853Z,26.30
2017-08-16T11:58:50.337Z,26.16
2017-08-16T12:01:17.867Z,26.60
2017-08-16T12:03:45.341Z,26.89
2017-08-16T12:06:12.829Z,26.85
2017-08-16T12:08:40.276Z,26.72
2017-08-16T12:11:07.812Z,26.40
2017-08-16T12:13:35.300Z,26.21
2017-08-16T12:16:02.865Z,26.22
2017-08-16T12:18:30.419Z,26.87
2017-08-16T12:20:57.927Z,26.91
2017-08-16T12:23:25.531Z,27.12
2017-08-16T12:25:53.104Z,26.61
2017-08-16T12:28:20.585Z,26.36
2017-08-16T12:30:48.163Z,26.17
2017-08-16T12:33:15.673Z,26.31
2017-08-16T12:35:43.640Z,26.05
2017-08-16T12:38:11.122Z,26.43
2017-08-16T12:40:38.597Z,26.31
2017-08-16T12:43:06.069Z,26.12
2017-08-16T12:45:33.577Z,26.16
2017-08-16T12:48:01.124Z,26.45
2017-08-16T12:50:28.573Z,26.25
2017-08-16T12:52:56.093Z,26.15
2017-08-16T12:55:23.554Z,26.33
2017-08-16T12:57:51.067Z,26.51
2017-08-16T13:00:18.992Z,26.57
2017-08-16T13:02:46.505Z,26.41
2017-08-16T13:05:14.043Z,26.87
2017-08-16T13:07:41.525Z,26.68
2017-08-16T13:10:09.050Z,26.56
2017-08-16T13:12:36.746Z,26.81
2017-08-16T13:15:06.248Z,26.70
2017-08-16T13:17:33.734Z,26.39
2017-08-16T13:20:01.233Z,26.85
2017-08-16T13:22:28.798Z,26.53
2017-08-16T13:24:56.874Z,26.14
2017-08-16T13:27:24.419Z,25.97
2017-08-16T13:29:51.871Z,26.18
2017-08-16T13:32:19.337Z,26.26
2017-08-16T13:34:46.897Z,26.31
2017-08-16T13:37:14.701Z,26.10
2017-08-16T13:39:42.221Z,26.26
2017-08-16T13:42:09.714Z,26.33
2017-08-16T13:44:37.213Z,26.42
2017-08-16T13:47:04.668Z,26.24
2017-08-16T13:49:32.257Z,26.27
2017-08-16T13:51:59.859Z,26.54
2017-08-16T13:54:27.334Z,26.32
2017-08-16T13:56:54.790Z,26.31
2017-08-16T13:59:22.275Z,26.21
2017-08-16T14:01:49.725Z,26.25
2017-08-16T14:04:17.208Z,26.40
2017-08-16T14:06:44.651Z,26.16
2017-08-16T14:09:12.121Z,26.14
2017-08-16T14:11:39.669Z,26.27
2017-08-16T14:14:07.144Z,26.72
2017-08-16T14:16:34.669Z,26.54
2017-08-16T14:19:03.029Z,26.93
2017-08-16T14:21:30.489Z,26.69
2017-08-16T14:23:57.941Z,26.79
2017-08-16T14:26:25.437Z,26.45
2017-08-16T14:28:52.890Z,26.29
2017-08-16T14:31:20.450Z,26.29
2017-08-16T14:33:47.979Z,26.20
2017-08-16T14:36:15.471Z,26.23
2017-08-16T14:38:42.992Z,26.16
2017-08-16T14:41:10.469Z,26.60
2017-08-16T14:43:37.925Z,26.60
2017-08-16T14:46:05.457Z,26.47
2017-08-16T14:48:32.934Z,26.74
2017-08-16T14:51:00.417Z,26.36
2017-08-16T14:53:27.879Z,26.26
2017-08-16T14:55:55.421Z,26.22
2017-08-16T14:58:22.975Z,26.40
2017-08-16T15:00:50.528Z,26.33
2017-08-16T15:03:18.092Z,26.53
2017-08-16T15:05:45.623Z,26.44
2017-08-16T15:08:13.081Z,26.27
2017-08-16T15:10:40.660Z,26.10
2017-08-16T15:13:08.120Z,26.19
2017-08-16T15:15:35.607Z,25.98
2017-08-16T15:18:03.389Z,25.91
2017-08-16T15:20:30.860Z,25.90
2017-08-16T15:22:58.340Z,26.00
2017-08-16T15:25:25.788Z,26.10
2017-08-16T15:27:53.348Z,26.06
2017-08-16T15:30:21.006Z,26.12
2017-08-16T15:32:48.485Z,26.11
2017-08-16T15:35:15.937Z,26.20
2017-08-16T15:37:43.424Z,25.98
2017-08-16T15:40:10.894Z,25.99
2017-08-16T15:42:38.956Z,26.10
2017-08-16T15:45:06.412Z,26.12
2017-08-16T15:47:33.892Z,25.76
2017-08-16T15:50:01.346Z,25.81
2017-08-16T15:52:29.646Z,25.84
2017-08-16T15:54:57.122Z,25.74
2017-08-16T15:57:24.695Z,25.68
2017-08-16T15:59:52.159Z,25.62
2017-08-16T16:02:19.653Z,25.68
2017-08-16T16:04:47.173Z,25.73
2017-08-16T16:07:14.689Z,25.81
2017-08-16T16:09:42.226Z,25.75
2017-08-16T16:12:09.836Z,25.80
2017-08-16T16:14:37.306Z,25.58
2017-08-16T16:17:04.885Z,25.94
2017-08-16T16:19:32.367Z,25.93
2017-08-16T16:21:59.825Z,25.86
2017-08-16T16:24:27.374Z,25.84
2017-08-16T16:26:54.828Z,25.92
2017-08-16T16:29:22.353Z,26.21
2017-08-16T16:31:49.966Z,26.11
2017-08-16T16:34:17.705Z,26.27
2017-08-16T16:36:45.229Z,26.04
2017-08-16T16:39:12.680Z,26.05
2017-08-16T16:41:40.151Z,26.25
2017-08-16T16:44:07.692Z,26.39
2017-08-16T16:46:35.656Z,26.42
2017-08-16T16:49:03.155Z,26.09
2017-08-16T16:51:30.673Z,26.06
2017-08-16T16:53:58.115Z,25.95
2017-08-16T16:56:25.593Z,26.20
2017-08-16T16:58:53.504Z,25.97
2017-08-16T17:01:21.053Z,26.23
2017-08-16T17:03:48.572Z,26.13
2017-08-16T17:06:16.128Z,25.98
2017-08-16T17:08:43.693Z,25.92
2017-08-16T17:11:11.550Z,25.50
2017-08-16T17:13:39.117Z,25.43
2017-08-16T17:16:06.681Z,25.35
2017-08-16T17:18:34.146Z,25.51
2017-08-16T17:21:01.693Z,25.47
2017-08-16T17:23:29.471Z,25.49
2017-08-16T17:25:56.934Z,25.29
2017-08-16T17:28:24.425Z,25.29
2017-08-16T17:30:51.880Z,25.15
2017-08-16T17:33:19.358Z,25.18
2017-08-16T17:35:46.844Z,24.94
2017-08-16T17:38:14.370Z,24.71
2017-08-16T17:40:41.832Z,24.61
2017-08-16T17:43:09.305Z,24.51
2017-08-16T17:45:36.747Z,24.46
2017-08-16T17:48:04.220Z,24.34
2017-08-16T17:50:31.698Z,24.25
2017-08-16T17:52:59.168Z,24.45
2017-08-16T17:55:26.699Z,24.32
2017-08-16T17:57:54.255Z,24.01
2017-08-16T18:00:21.881Z,24.02
2017-08-16T18:02:49.378Z,24.16
2017-08-16T18:05:16.929Z,24.20
2017-08-16T18:07:44.389Z,23.91
2017-08-16T18:10:11.872Z,23.87
2017-08-16T18:12:39.405Z,24.11
2017-08-16T18:15:07.290Z,24.15
2017-08-16T18:17:34.824Z,24.18
2017-08-16T18:20:02.292Z,24.09
2017-08-16T18:22:29.841Z,23.87
2017-08-16T18:24:57.324Z,23.78
2017-08-16T18:27:25.061Z,23.47
2017-08-16T18:29:52.526Z,23.38
2017-08-16T18:32:19.987Z,23.25
2017-08-16T18:34:47.527Z,23.13
2017-08-16T18:37:15.009Z,23.12
2017-08-16T18:39:43.307Z,23.18
2017-08-16T18:42:10.790Z,23.10
2017-08-16T18:44:38.259Z,22.99
2017-08-16T18:47:05.721Z,22.99
2017-08-16T18:49:33.199Z,23.01
2017-08-16T18:52:00.830Z,22.93
2017-08-16T18:54:28.313Z,22.83
2017-08-16T18:56:55.792Z,22.79
2017-08-16T18:59:23.333Z,22.93
2017-08-16T19:01:50.813Z,22.85
2017-08-16T19:04:18.345Z,22.88
2017-08-16T19:06:45.902Z,22.81
2017-08-16T19:09:13.468Z,22.81
2017-08-16T19:11:41.013Z,22.72
2017-08-16T19:14:08.587Z,22.63
2017-08-16T19:16:36.073Z,22.65
2017-08-16T19:19:03.596Z,22.76
2017-08-16T19:21:31.150Z,22.49
2017-08-16T19:23:58.700Z,22.61
2017-08-16T19:26:26.197Z,22.16
2017-08-16T19:28:53.657Z,22.10
2017-08-16T19:31:21.184Z,21.97
2017-08-16T19:33:48.745Z,21.89
2017-08-16T19:36:16.209Z,22.13
2017-08-16T19:38:43.684Z,22.11
2017-08-16T19:41:11.226Z,22.09
2017-08-16T19:43:38.782Z,21.87
2017-08-16T19:46:06.325Z,21.74
2017-08-16T19:48:33.800Z,22.26
2017-08-16T19:51:01.338Z,22.00
2017-08-16T19:53:28.808Z,22.00
2017-08-16T19:55:56.407Z,21.77
2017-08-16T19:58:23.925Z,21.70
2017-08-16T20:00:51.471Z,21.83
2017-08-16T20:03:18.961Z,21.82
2017-08-16T20:05:46.442Z,21.79
2017-08-16T20:08:14.044Z,21.69
2017-08-16T20:10:41.519Z,21.55
2017-08-16T20:13:09.066Z,21.53
2017-08-16T20:15:36.545Z,21.65
2017-08-16T20:18:04.075Z,21.63
2017-08-16T20:20:31.636Z,21.59
2017-08-16T20:22:59.203Z,21.63
2017-08-16T20:25:26.747Z,21.60
2017-08-16T20:27:54.195Z,21.70
2017-08-16T20:30:21.678Z,21.67
2017-08-16T20:32:49.173Z,21.56
2017-08-16T20:35:16.684Z,21.50
2017-08-16T20:37:44.131Z,21.60
2017-08-16T20:40:11.601Z,21.52
2017-08-16T20:42:39.157Z,21.55
2017-08-16T20:45:06.649Z,21.46
2017-08-16T20:47:34.096Z,21.47
2017-08-16T20:50:01.629Z,21.26
2017-08-16T20:52:29.195Z,21.26
2017-08-16T20:54:56.649Z,21.37
2017-08-16T20:57:24.144Z,21.32
2017-08-16T20:59:51.600Z,21.13
2017-08-16T21:02:19.176Z,21.28
2017-08-16T21:04:46.633Z,21.41
2017-08-16T21:07:14.109Z,21.43
2017-08-16T21:09:42.473Z,21.38
2017-08-16T21:12:09.954Z,21.43
2017-08-16T21:14:37.467Z,21.46
2017-08-16T21:17:05.027Z,21.61
2017-08-16T21:19:32.551Z,21.58
2017-08-16T21:22:00.547Z,21.69
2017-08-16T21:24:28.056Z,21.47
2017-08-16T21:26:55.618Z,21.50
2017-08-16T21:29:23.092Z,21.40
2017-08-16T21:31:50.644Z,21.26
2017-08-16T21:34:18.121Z,21.53
2017-08-16T21:36:45.649Z,21.49
2017-08-16T21:39:13.226Z,21.45
2017-08-16T21:41:40.687Z,21.44
2017-08-16T21:44:08.161Z,21.52
2017-08-16T21:46:35.628Z,21.46
2017-08-16T21:49:03.131Z,21.12
2017-08-16T21:51:30.579Z,21.26
2017-08-16T21:53:58.204Z,21.07
2017-08-16T21:56:25.676Z,21.29
2017-08-16T21:58:53.273Z,21.36
2017-08-16T22:01:20.728Z,21.39
2017-08-16T22:03:48.210Z,21.48
2017-08-16T22:06:15.691Z,21.44
2017-08-16T22:08:43.149Z,21.63
2017-08-16T22:11:10.624Z,21.44
2017-08-16T22:13:38.082Z,21.76
2017-08-16T22:16:05.567Z,21.41
2017-08-16T22:18:33.048Z,21.09
2017-08-16T22:21:00.515Z,21.04
2017-08-16T22:23:27.982Z,21.06
2017-08-16T22:25:55.609Z,21.20
2017-08-16T22:28:23.154Z,21.05
2017-08-16T22:30:50.643Z,20.99
2017-08-16T22:33:18.100Z,20.93
2017-08-16T22:35:45.626Z,20.83
2017-08-16T22:38:13.242Z,20.81
2017-08-16T22:40:40.739Z,21.00
2017-08-16T22:43:08.184Z,20.79
2017-08-16T22:45:35.812Z,20.64
2017-08-16T22:48:03.275Z,20.40
2017-08-16T22:50:30.765Z,20.49
2017-08-16T22:52:58.337Z,20.18
2017-08-16T22:55:25.797Z,20.00
2017-08-16T22:57:53.363Z,20.30
2017-08-16T23:00:20.815Z,20.38
2017-08-16T23:02:48.297Z,20.37
2017-08-16T23:05:15.752Z,20.08
2017-08-16T23:07:43.229Z,20.05
2017-08-16T23:10:10.683Z,19.80
2017-08-16T23:12:38.188Z,19.90
2017-08-16T23:15:05.753Z,20.01
2017-08-16T23:17:33.358Z,19.70
2017-08-16T23:20:00.868Z,19.60
2017-08-16T23:22:28.345Z,19.74
2017-08-16T23:24:56.266Z,19.59
2017-08-16T23:27:23.853Z,19.49
2017-08-16T23:29:51.519Z,19.73
2017-08-16T23:32:19.077Z,19.68
2017-08-16T23:34:46.622Z,19.63
2017-08-16T23:37:14.341Z,19.69
2017-08-16T23:39:41.835Z,19.59
2017-08-16T23:42:09.283Z,19.52
2017-08-16T23:44:36.868Z,19.58
2017-08-16T23:47:04.354Z,19.53
2017-08-16T23:49:31.882Z,19.64
2017-08-16T23:51:59.436Z,19.57
2017-08-16T23:54:27.001Z,19.49
2017-08-16T23:56:54.476Z,19.32
2017-08-16T23:59:22.012Z,19.13
